createdAt,value
2023-04-03T00:03:49.995Z,7.61
2023-04-03T00:07:54.290Z,7.64
2023-04-03T00:11:54.987Z,7.63
2023-04-03T00:15:58.436Z,7.56
2023-04-03T00:19:59.040Z,7.36
2023-04-03T00:23:59.700Z,7.35
2023-04-03T00:28:00.137Z,7.21
2023-04-03T00:32:03.881Z,7.01
2023-04-03T00:36:11.148Z,7.19
2023-04-03T00:40:13.898Z,7.34
2023-04-03T00:44:26.152Z,7.30
2023-04-03T00:48:34.768Z,7.25
2023-04-03T00:52:36.174Z,6.81
2023-04-03T00:56:37.686Z,6.91
2023-04-03T01:00:41.565Z,6.87
2023-04-03T01:04:48.465Z,6.93
2023-04-03T01:08:50.886Z,6.95
2023-04-03T01:12:54.192Z,6.98
2023-04-03T01:16:59.397Z,6.98
2023-04-03T01:21:50.002Z,7.04
2023-04-03T01:25:53.686Z,6.75
2023-04-03T01:29:54.525Z,6.99
2023-04-03T01:33:58.843Z,7.07
2023-04-03T01:37:59.463Z,6.84
2023-04-03T01:42:00.821Z,6.83
2023-04-03T01:46:09.034Z,6.85
2023-04-03T01:50:14.181Z,6.77
2023-04-03T01:54:15.055Z,6.85
2023-04-03T01:58:16.054Z,6.90
2023-04-03T02:02:17.308Z,6.89
2023-04-03T02:06:20.493Z,6.79
2023-04-03T02:10:21.403Z,6.78
2023-04-03T02:14:23.044Z,6.82
2023-04-03T02:18:23.924Z,6.85
2023-04-03T02:22:27.483Z,6.72
2023-04-03T02:26:28.510Z,6.81
2023-04-03T02:30:32.108Z,6.55
2023-04-03T02:34:32.680Z,6.99
2023-04-03T02:38:38.166Z,7.17
2023-04-03T02:42:38.835Z,7.22
2023-04-03T02:46:40.166Z,7.22
2023-04-03T02:50:41.999Z,7.07
2023-04-03T02:54:45.646Z,7.07
2023-04-03T02:58:47.159Z,7.07
2023-04-03T03:02:50.983Z,6.94
2023-04-03T03:06:52.220Z,6.80
2023-04-03T03:10:55.232Z,6.64
2023-04-03T03:14:55.952Z,6.58
2023-04-03T03:18:57.865Z,6.58
2023-04-03T03:22:58.964Z,6.55
2023-04-03T03:27:01.985Z,6.50
2023-04-03T03:31:03.234Z,6.50
2023-04-03T03:35:05.107Z,6.63
2023-04-03T03:39:05.645Z,6.58
2023-04-03T03:43:09.029Z,6.77
2023-04-03T03:47:12.015Z,6.80
2023-04-03T03:51:12.902Z,6.66
2023-04-03T03:55:14.049Z,6.68
2023-04-03T03:59:19.202Z,6.77
2023-04-03T04:03:20.741Z,6.77
2023-04-03T04:07:22.977Z,6.71
2023-04-03T04:11:25.184Z,6.72
2023-04-03T04:15:32.378Z,6.60
2023-04-03T04:19:34.364Z,6.64
2023-04-03T04:23:35.313Z,6.60
2023-04-03T04:27:36.331Z,6.69
2023-04-03T04:31:40.202Z,6.88
2023-04-03T04:35:43.018Z,7.00
2023-04-03T04:39:48.381Z,7.04
2023-04-03T04:43:51.662Z,7.21
2023-04-03T04:47:55.962Z,7.27
2023-04-03T04:51:57.757Z,7.31
2023-04-03T04:56:02.977Z,7.24
2023-04-03T05:00:09.745Z,7.26
2023-04-03T05:04:14.716Z,7.39
2023-04-03T05:08:15.793Z,7.55
2023-04-03T05:12:20.124Z,7.43
2023-04-03T05:16:27.546Z,7.69
2023-04-03T05:20:31.970Z,7.90
2023-04-03T05:24:32.844Z,8.08
2023-04-03T05:28:36.524Z,8.16
2023-04-03T05:32:37.342Z,8.12
2023-04-03T05:37:07.541Z,8.25
2023-04-03T05:41:09.569Z,8.41
2023-04-03T05:45:11.698Z,8.39
2023-04-03T05:49:12.653Z,8.31
2023-04-03T05:53:25.287Z,8.18
2023-04-03T05:57:27.443Z,7.84
2023-04-03T06:01:28.243Z,8.37
2023-04-03T06:05:31.381Z,8.43
2023-04-03T06:09:35.219Z,8.53
2023-04-03T06:13:37.515Z,8.54
2023-04-03T06:17:38.630Z,8.44
2023-04-03T06:21:39.701Z,8.78
2023-04-03T06:25:44.605Z,8.95
2023-04-03T06:29:46.552Z,8.79
2023-04-03T06:33:47.218Z,8.67
2023-04-03T06:37:47.775Z,9.13
2023-04-03T06:41:51.309Z,9.12
2023-04-03T06:45:52.875Z,9.00
2023-04-03T06:49:55.351Z,8.82
2023-04-03T06:53:58.615Z,9.01
2023-04-03T06:58:02.259Z,8.89
2023-04-03T07:02:02.899Z,9.02
2023-04-03T07:06:03.517Z,9.22
2023-04-03T07:10:08.661Z,9.65
2023-04-03T07:14:12.119Z,9.69
2023-04-03T07:18:12.452Z,9.89
2023-04-03T07:22:13.409Z,9.88
2023-04-03T07:26:14.101Z,9.99
2023-04-03T07:30:18.354Z,10.25
2023-04-03T07:34:19.188Z,10.52
2023-04-03T07:38:21.397Z,10.46
2023-04-03T07:42:22.582Z,10.81
2023-04-03T07:46:26.201Z,10.43
2023-04-03T07:50:28.491Z,10.14
2023-04-03T07:54:31.485Z,10.34
2023-04-03T07:58:32.430Z,10.52
2023-04-03T08:02:36.152Z,10.49
2023-04-03T08:06:46.564Z,10.91
2023-04-03T08:10:47.766Z,11.48
2023-04-03T08:14:48.213Z,12.33
2023-04-03T08:18:51.525Z,13.19
2023-04-03T08:22:53.007Z,12.84
2023-04-03T08:26:53.458Z,12.89
2023-04-03T08:30:53.932Z,13.37
2023-04-03T08:34:57.342Z,13.61
2023-04-03T08:38:59.409Z,13.59
2023-04-03T08:43:34.592Z,12.65
2023-04-03T08:47:43.253Z,14.15
2023-04-03T08:51:53.810Z,14.01
2023-04-03T08:55:57.270Z,13.53
2023-04-03T08:59:58.103Z,12.74
2023-04-03T09:03:58.634Z,11.61
2023-04-03T09:08:11.332Z,11.89
2023-04-03T09:12:25.071Z,12.03
2023-04-03T09:16:43.091Z,11.91
2023-04-03T09:20:50.593Z,11.61
2023-04-03T09:25:07.047Z,11.57
2023-04-03T09:29:12.830Z,11.63
2023-04-03T09:33:15.401Z,11.68
2023-04-03T09:37:41.848Z,12.32
2023-04-03T09:41:45.265Z,11.83
2023-04-03T09:45:46.319Z,12.19
2023-04-03T09:49:47.051Z,13.05
2023-04-03T09:53:49.689Z,15.19
2023-04-03T09:57:54.225Z,15.76
2023-04-03T10:02:03.994Z,16.29
2023-04-03T10:06:09.060Z,16.08
2023-04-03T10:10:27.130Z,16.15
2023-04-03T10:14:31.225Z,17.31
2023-04-03T10:18:46.512Z,16.83
2023-04-03T10:23:04.391Z,15.43
2023-04-03T10:27:17.505Z,14.66
2023-04-03T10:31:29.638Z,15.59
2023-04-03T10:35:53.490Z,16.59
2023-04-03T10:40:02.994Z,16.91
2023-04-03T10:44:19.631Z,17.33
2023-04-03T10:48:47.228Z,18.92
2023-04-03T10:53:00.335Z,18.46
2023-04-03T10:57:12.442Z,19.40
2023-04-03T11:01:21.513Z,19.30
2023-04-03T11:05:38.108Z,19.65
2023-04-03T11:09:44.341Z,21.57
2023-04-03T11:13:54.176Z,20.63
2023-04-03T11:18:02.339Z,18.78
2023-04-03T11:22:15.124Z,18.24
2023-04-03T11:26:18.847Z,18.18
2023-04-03T11:30:27.435Z,19.11
2023-04-03T11:34:41.590Z,20.37
2023-04-03T11:38:54.030Z,19.90
2023-04-03T11:43:00.941Z,21.02
2023-04-03T11:47:06.378Z,20.85
2023-04-03T11:51:46.945Z,22.02
2023-04-03T11:56:21.907Z,22.96
2023-04-03T12:01:07.296Z,22.40
2023-04-03T12:05:31.715Z,21.36
2023-04-03T12:09:54.889Z,22.18
2023-04-03T12:14:17.648Z,21.89
2023-04-03T12:18:45.723Z,21.17
2023-04-03T12:23:27.428Z,21.32
2023-04-03T12:27:47.144Z,21.73
2023-04-03T12:32:14.199Z,19.39
2023-04-03T12:36:22.830Z,17.49
2023-04-03T12:40:36.642Z,19.28
2023-04-03T12:44:59.082Z,21.18
2023-04-03T12:49:03.761Z,23.28
2023-04-03T12:53:08.808Z,24.58
2023-04-03T12:57:20.843Z,24.11
2023-04-03T13:01:27.024Z,21.96
2023-04-03T13:05:31.007Z,20.52
2023-04-03T13:09:33.962Z,18.32
2023-04-03T13:13:34.401Z,16.58
2023-04-03T13:17:36.422Z,16.53
2023-04-03T13:21:39.840Z,18.20
2023-04-03T13:25:46.646Z,18.12
2023-04-03T13:29:48.434Z,17.04
2023-04-03T13:34:04.298Z,16.82
2023-04-03T13:38:25.227Z,18.12
2023-04-03T13:42:30.878Z,19.21
2023-04-03T13:46:32.389Z,18.24
2023-04-03T13:50:33.177Z,17.20
2023-04-03T13:54:41.362Z,16.49
2023-04-03T13:58:43.032Z,16.80
2023-04-03T14:02:43.829Z,18.70
2023-04-03T14:06:45.015Z,17.08
2023-04-03T14:10:51.023Z,16.84
2023-04-03T14:14:53.839Z,16.77
2023-04-03T14:18:55.800Z,18.71
2023-04-03T14:22:58.332Z,20.28
2023-04-03T14:27:02.683Z,18.46
2023-04-03T14:31:04.321Z,17.42
2023-04-03T14:35:05.812Z,16.50
2023-04-03T14:39:09.970Z,15.62
2023-04-03T14:43:16.867Z,15.87
2023-04-03T14:47:30.528Z,15.76
2023-04-03T14:51:32.979Z,15.21
2023-04-03T14:55:34.930Z,14.97
2023-04-03T14:59:38.817Z,14.96
2023-04-03T15:03:39.449Z,14.53
2023-04-03T15:07:44.489Z,14.84
2023-04-03T15:11:44.885Z,15.06
2023-04-03T15:15:49.000Z,15.02
2023-04-03T15:19:49.990Z,15.12
2023-04-03T15:23:52.020Z,14.71
2023-04-03T15:27:53.845Z,14.29
2023-04-03T15:31:58.500Z,13.63
2023-04-03T15:36:06.999Z,12.95
2023-04-03T15:40:13.973Z,12.66
2023-04-03T15:44:15.026Z,12.23
2023-04-03T15:48:19.372Z,12.34
2023-04-03T15:52:19.768Z,12.08
2023-04-03T15:56:20.324Z,12.38
2023-04-03T16:00:22.695Z,12.16
2023-04-03T16:04:26.431Z,11.99
2023-04-03T16:08:27.171Z,11.99
2023-04-03T16:12:27.575Z,11.98
2023-04-03T16:16:32.247Z,11.63
2023-04-03T16:20:36.226Z,11.23
2023-04-03T16:24:36.992Z,11.43
2023-04-03T16:28:37.734Z,11.24
2023-04-03T16:32:41.317Z,11.23
2023-04-03T16:36:44.533Z,11.26
2023-04-03T16:40:49.650Z,11.13
2023-04-03T16:44:50.416Z,10.69
2023-04-03T16:48:50.961Z,10.26
2023-04-03T16:52:54.073Z,10.08
2023-04-03T16:56:59.058Z,10.03
2023-04-03T17:01:03.320Z,10.32
2023-04-03T17:05:06.539Z,9.69
2023-04-03T17:09:13.288Z,9.60
2023-04-03T17:13:13.938Z,9.85
2023-04-03T17:17:17.242Z,9.71
2023-04-03T17:21:19.223Z,9.74
2023-04-03T17:25:22.875Z,9.35
2023-04-03T17:29:23.533Z,9.51
2023-04-03T17:33:24.111Z,9.35
2023-04-03T17:37:24.578Z,9.38
2023-04-03T17:41:28.089Z,9.21
2023-04-03T17:45:28.668Z,9.16
2023-04-03T17:49:33.694Z,8.88
2023-04-03T17:53:36.982Z,8.86
2023-04-03T17:57:41.894Z,8.93
2023-04-03T18:01:45.329Z,8.46
2023-04-03T18:05:47.900Z,8.56
2023-04-03T18:09:52.540Z,8.29
2023-04-03T18:14:02.268Z,8.33
2023-04-03T18:18:03.157Z,8.20
2023-04-03T18:22:06.572Z,8.19
2023-04-03T18:26:12.680Z,8.21
2023-04-03T18:30:21.097Z,8.32
2023-04-03T18:34:21.589Z,7.98
2023-04-03T18:38:22.200Z,7.72
2023-04-03T18:42:28.046Z,7.92
2023-04-03T18:46:32.024Z,7.68
2023-04-03T18:50:34.008Z,7.92
2023-04-03T18:54:37.515Z,8.07
2023-04-03T18:58:38.086Z,8.10
2023-04-03T19:02:43.768Z,7.91
2023-04-03T19:06:56.017Z,7.82
2023-04-03T19:10:58.722Z,7.82
2023-04-03T19:14:59.938Z,7.61
2023-04-03T19:19:04.396Z,7.76
2023-04-03T19:23:05.966Z,7.76
2023-04-03T19:27:08.308Z,7.35
2023-04-03T19:31:16.442Z,7.74
2023-04-03T19:35:20.168Z,7.91
2023-04-03T19:39:20.754Z,7.93
2023-04-03T19:43:21.658Z,8.12
2023-04-03T19:47:25.050Z,8.03
2023-04-03T19:51:31.199Z,8.07
2023-04-03T19:55:32.988Z,7.94
2023-04-03T19:59:39.007Z,7.67
2023-04-03T20:03:45.068Z,8.09
2023-04-03T20:07:48.964Z,8.17
2023-04-03T20:11:51.453Z,8.20
2023-04-03T20:15:54.153Z,8.17
2023-04-03T20:20:01.497Z,8.08
2023-04-03T20:24:07.960Z,8.00
2023-04-03T20:28:11.221Z,8.00
2023-04-03T20:32:12.239Z,7.95
2023-04-03T20:36:12.894Z,7.82
2023-04-03T20:40:17.513Z,7.66
2023-04-03T20:44:20.052Z,7.77
2023-04-03T20:48:21.891Z,7.94
2023-04-03T20:52:22.849Z,8.02
2023-04-03T20:56:27.863Z,7.85
2023-04-03T21:00:29.743Z,7.76
2023-04-03T21:04:39.689Z,7.90
2023-04-03T21:09:25.324Z,7.92
2023-04-03T21:14:13.917Z,8.05
2023-04-03T21:18:56.001Z,7.92
2023-04-03T21:22:56.955Z,8.22
2023-04-03T21:27:02.954Z,8.09
2023-04-03T21:31:08.751Z,7.89
2023-04-03T21:35:13.175Z,7.92
2023-04-03T21:39:13.682Z,8.00
2023-04-03T21:43:14.197Z,8.08
2023-04-03T21:47:15.737Z,7.78
2023-04-03T21:51:20.219Z,7.55
2023-04-03T21:55:21.082Z,7.44
2023-04-03T21:59:22.167Z,7.44
2023-04-03T22:03:24.214Z,7.71
2023-04-03T22:07:27.710Z,7.64
2023-04-03T22:11:29.460Z,7.63
2023-04-03T22:15:30.340Z,7.67
2023-04-03T22:19:30.700Z,7.35
2023-04-03T22:23:36.022Z,7.42
2023-04-03T22:27:36.595Z,7.28
2023-04-03T22:31:37.237Z,7.31
2023-04-03T22:35:37.907Z,7.33
2023-04-03T22:39:41.007Z,7.10
2023-04-03T22:43:42.837Z,7.30
2023-04-03T22:47:47.214Z,7.08
2023-04-03T22:51:47.840Z,7.10
2023-04-03T22:55:58.422Z,6.63
2023-04-03T22:59:59.091Z,6.75
2023-04-03T23:03:59.556Z,6.79
2023-04-03T23:07:59.952Z,7.07
2023-04-03T23:12:04.716Z,6.98
2023-04-03T23:16:07.282Z,7.05
2023-04-03T23:20:09.953Z,7.09
2023-04-03T23:24:11.800Z,7.14
2023-04-03T23:28:14.831Z,7.03
2023-04-03T23:32:15.188Z,7.05
2023-04-03T23:36:16.304Z,6.88
2023-04-03T23:40:17.164Z,6.59
2023-04-03T23:44:20.438Z,6.40
2023-04-03T23:48:21.056Z,6.32
2023-04-03T23:52:21.479Z,6.18
2023-04-03T23:56:24.601Z,5.93
